sensor_id;sensor_type;location;lat;lon;timestamp;P1;durP1;ratioP1;P2;durP2;ratioP2
21987;SDS011;11158;53.404;-1.510;2023-04-05T00:00:21;13.68;;;8.40;;
21987;SDS011;11158;53.404;-1.510;2023-04-05T00:03:06;18.73;;;9.48;;
21987;SDS011;11158;53.404;-1.510;2023-04-05T00:05:52;17.50;;;9.23;;
21987;SDS011;11158;53.404;-1.510;2023-04-05T00:08:37;14.82;;;8.45;;
21987;SDS011;11158;53.404;-1.510;2023-04-05T00:11:21;12.23;;;8.23;;
21987;SDS011;11158;53.404;-1.510;2023-04-05T00:14:06;17.98;;;8.52;;
21987;SDS011;11158;53.404;-1.510;2023-04-05T00:16:49;17.25;;;9.23;;
21987;SDS011;11158;53.404;-1.510;2023-04-05T00:19:34;16.25;;;8.88;;
21987;SDS011;11158;53.404;-1.510;2023-04-05T00:22:19;13.25;;;8.20;;
21987;SDS011;11158;53.404;-1.510;2023-04-05T00:25:08;12.50;;;7.95;;
21987;SDS011;11158;53.404;-1.510;2023-04-05T00:27:53;18.38;;;8.55;;
21987;SDS011;11158;53.404;-1.510;2023-04-05T00:30:37;19.88;;;8.50;;
21987;SDS011;11158;53.404;-1.510;2023-04-05T00:33:21;18.52;;;7.78;;
21987;SDS011;11158;53.404;-1.510;2023-04-05T00:36:09;15.93;;;7.32;;
21987;SDS011;11158;53.404;-1.510;2023-04-05T00:39:01;13.65;;;7.80;;
21987;SDS011;11158;53.404;-1.510;2023-04-05T00:41:45;13.20;;;7.40;;
21987;SDS011;11158;53.404;-1.510;2023-04-05T00:44:30;14.30;;;7.43;;
21987;SDS011;11158;53.404;-1.510;2023-04-05T00:47:17;13.50;;;7.60;;
21987;SDS011;11158;53.404;-1.510;2023-04-05T00:50:01;10.70;;;6.70;;
21987;SDS011;11158;53.404;-1.510;2023-04-05T00:52:46;12.63;;;7.22;;
21987;SDS011;11158;53.404;-1.510;2023-04-05T00:55:31;13.90;;;7.07;;
21987;SDS011;11158;53.404;-1.510;2023-04-05T00:58:16;15.80;;;7.18;;
21987;SDS011;11158;53.404;-1.510;2023-04-05T01:04:05;12.23;;;7.10;;
21987;SDS011;11158;53.404;-1.510;2023-04-05T01:10:09;12.43;;;7.07;;
21987;SDS011;11158;53.404;-1.510;2023-04-05T01:12:57;12.30;;;6.45;;
21987;SDS011;11158;53.404;-1.510;2023-04-05T01:15:43;14.27;;;7.22;;
21987;SDS011;11158;53.404;-1.510;2023-04-05T01:18:27;15.02;;;7.15;;
21987;SDS011;11158;53.404;-1.510;2023-04-05T01:24:15;14.63;;;6.90;;
21987;SDS011;11158;53.404;-1.510;2023-04-05T01:27:15;11.75;;;6.70;;
21987;SDS011;11158;53.404;-1.510;2023-04-05T01:30:12;11.40;;;6.75;;
21987;SDS011;11158;53.404;-1.510;2023-04-05T01:38:59;14.13;;;7.55;;
21987;SDS011;11158;53.404;-1.510;2023-04-05T01:41:46;10.82;;;6.50;;
21987;SDS011;11158;53.404;-1.510;2023-04-05T01:44:30;16.83;;;6.93;;
21987;SDS011;11158;53.404;-1.510;2023-04-05T01:47:14;12.23;;;6.78;;
21987;SDS011;11158;53.404;-1.510;2023-04-05T01:49:58;16.55;;;7.18;;
21987;SDS011;11158;53.404;-1.510;2023-04-05T01:52:43;16.88;;;7.10;;
21987;SDS011;11158;53.404;-1.510;2023-04-05T01:55:27;15.48;;;7.43;;
21987;SDS011;11158;53.404;-1.510;2023-04-05T01:58:11;15.65;;;7.85;;
21987;SDS011;11158;53.404;-1.510;2023-04-05T02:00:55;17.65;;;7.85;;
21987;SDS011;11158;53.404;-1.510;2023-04-05T02:03:40;12.63;;;7.07;;
21987;SDS011;11158;53.404;-1.510;2023-04-05T02:06:24;14.55;;;7.40;;
21987;SDS011;11158;53.404;-1.510;2023-04-05T02:09:09;11.70;;;6.75;;
21987;SDS011;11158;53.404;-1.510;2023-04-05T02:11:53;12.93;;;7.20;;
21987;SDS011;11158;53.404;-1.510;2023-04-05T02:14:37;14.90;;;7.25;;
21987;SDS011;11158;53.404;-1.510;2023-04-05T02:17:21;10.10;;;6.50;;
21987;SDS011;11158;53.404;-1.510;2023-04-05T02:20:06;10.35;;;7.20;;
21987;SDS011;11158;53.404;-1.510;2023-04-05T02:22:51;15.15;;;7.45;;
21987;SDS011;11158;53.404;-1.510;2023-04-05T02:25:36;14.98;;;7.00;;
21987;SDS011;11158;53.404;-1.510;2023-04-05T02:28:20;11.60;;;7.07;;
21987;SDS011;11158;53.404;-1.510;2023-04-05T02:31:08;12.10;;;7.25;;
21987;SDS011;11158;53.404;-1.510;2023-04-05T02:33:53;9.23;;;6.18;;
21987;SDS011;11158;53.404;-1.510;2023-04-05T02:36:38;12.40;;;7.40;;
21987;SDS011;11158;53.404;-1.510;2023-04-05T02:39:24;12.35;;;6.80;;
21987;SDS011;11158;53.404;-1.510;2023-04-05T02:42:09;13.30;;;7.05;;
21987;SDS011;11158;53.404;-1.510;2023-04-05T02:44:53;13.23;;;6.47;;
21987;SDS011;11158;53.404;-1.510;2023-04-05T02:47:37;13.70;;;7.03;;
21987;SDS011;11158;53.404;-1.510;2023-04-05T02:50:21;13.30;;;7.22;;
21987;SDS011;11158;53.404;-1.510;2023-04-05T02:53:06;10.88;;;6.35;;
21987;SDS011;11158;53.404;-1.510;2023-04-05T02:55:50;13.55;;;7.38;;
21987;SDS011;11158;53.404;-1.510;2023-04-05T02:58:36;12.52;;;7.13;;
21987;SDS011;11158;53.404;-1.510;2023-04-05T03:01:20;16.67;;;8.60;;
21987;SDS011;11158;53.404;-1.510;2023-04-05T03:04:05;12.02;;;6.88;;
21987;SDS011;11158;53.404;-1.510;2023-04-05T03:06:49;12.93;;;7.53;;
21987;SDS011;11158;53.404;-1.510;2023-04-05T03:09:34;13.27;;;7.30;;
21987;SDS011;11158;53.404;-1.510;2023-04-05T03:12:21;12.88;;;7.30;;
21987;SDS011;11158;53.404;-1.510;2023-04-05T03:15:05;13.95;;;7.30;;
21987;SDS011;11158;53.404;-1.510;2023-04-05T03:17:50;14.95;;;8.60;;
21987;SDS011;11158;53.404;-1.510;2023-04-05T03:20:35;15.98;;;7.50;;
21987;SDS011;11158;53.404;-1.510;2023-04-05T03:23:27;14.40;;;7.85;;
21987;SDS011;11158;53.404;-1.510;2023-04-05T03:26:13;14.75;;;7.65;;
21987;SDS011;11158;53.404;-1.510;2023-04-05T03:28:57;15.63;;;7.20;;
21987;SDS011;11158;53.404;-1.510;2023-04-05T03:31:41;12.48;;;7.93;;
21987;SDS011;11158;53.404;-1.510;2023-04-05T03:34:26;13.73;;;7.45;;
21987;SDS011;11158;53.404;-1.510;2023-04-05T03:37:11;14.13;;;7.65;;
21987;SDS011;11158;53.404;-1.510;2023-04-05T03:39:55;16.13;;;8.43;;
21987;SDS011;11158;53.404;-1.510;2023-04-05T03:42:39;17.48;;;9.02;;
21987;SDS011;11158;53.404;-1.510;2023-04-05T03:45:23;12.20;;;7.85;;
21987;SDS011;11158;53.404;-1.510;2023-04-05T03:48:08;14.00;;;7.72;;
21987;SDS011;11158;53.404;-1.510;2023-04-05T03:50:52;14.13;;;7.63;;
21987;SDS011;11158;53.404;-1.510;2023-04-05T03:53:36;8.80;;;6.57;;
21987;SDS011;11158;53.404;-1.510;2023-04-05T03:56:20;12.77;;;8.15;;
21987;SDS011;11158;53.404;-1.510;2023-04-05T03:59:04;12.70;;;7.13;;
21987;SDS011;11158;53.404;-1.510;2023-04-05T04:01:49;11.05;;;7.85;;
21987;SDS011;11158;53.404;-1.510;2023-04-05T04:04:33;13.43;;;8.43;;
21987;SDS011;11158;53.404;-1.510;2023-04-05T04:07:17;15.68;;;8.32;;
21987;SDS011;11158;53.404;-1.510;2023-04-05T04:10:02;13.75;;;8.02;;
21987;SDS011;11158;53.404;-1.510;2023-04-05T04:12:48;13.85;;;7.22;;
21987;SDS011;11158;53.404;-1.510;2023-04-05T04:15:32;12.63;;;7.45;;
21987;SDS011;11158;53.404;-1.510;2023-04-05T04:18:16;10.10;;;6.80;;
21987;SDS011;11158;53.404;-1.510;2023-04-05T04:21:03;12.73;;;7.18;;
21987;SDS011;11158;53.404;-1.510;2023-04-05T04:23:51;17.35;;;8.18;;
21987;SDS011;11158;53.404;-1.510;2023-04-05T04:26:35;13.55;;;7.18;;
21987;SDS011;11158;53.404;-1.510;2023-04-05T04:29:20;14.93;;;8.10;;
21987;SDS011;11158;53.404;-1.510;2023-04-05T04:32:17;15.13;;;7.80;;
21987;SDS011;11158;53.404;-1.510;2023-04-05T04:35:10;13.68;;;7.25;;
21987;SDS011;11158;53.404;-1.510;2023-04-05T04:37:58;13.02;;;7.78;;
21987;SDS011;11158;53.404;-1.510;2023-04-05T04:40:43;13.55;;;7.93;;
21987;SDS011;11158;53.404;-1.510;2023-04-05T04:43:33;13.48;;;7.82;;
21987;SDS011;11158;53.404;-1.510;2023-04-05T04:46:26;13.32;;;8.40;;
21987;SDS011;11158;53.404;-1.510;2023-04-05T04:49:13;16.23;;;8.68;;
21987;SDS011;11158;53.404;-1.510;2023-04-05T04:51:59;14.18;;;8.20;;
21987;SDS011;11158;53.404;-1.510;2023-04-05T04:54:52;15.85;;;8.63;;
21987;SDS011;11158;53.404;-1.510;2023-04-05T04:57:36;20.30;;;8.95;;
21987;SDS011;11158;53.404;-1.510;2023-04-05T05:00:21;15.00;;;8.85;;
21987;SDS011;11158;53.404;-1.510;2023-04-05T05:03:06;15.95;;;8.50;;
21987;SDS011;11158;53.404;-1.510;2023-04-05T05:05:51;17.17;;;9.02;;
21987;SDS011;11158;53.404;-1.510;2023-04-05T05:08:36;16.48;;;9.38;;
21987;SDS011;11158;53.404;-1.510;2023-04-05T05:11:20;13.93;;;8.90;;
21987;SDS011;11158;53.404;-1.510;2023-04-05T05:14:04;15.05;;;8.18;;
21987;SDS011;11158;53.404;-1.510;2023-04-05T05:16:49;14.15;;;8.82;;
21987;SDS011;11158;53.404;-1.510;2023-04-05T05:19:33;14.95;;;9.68;;
21987;SDS011;11158;53.404;-1.510;2023-04-05T05:22:17;17.00;;;8.80;;
21987;SDS011;11158;53.404;-1.510;2023-04-05T05:25:02;11.80;;;8.30;;
21987;SDS011;11158;53.404;-1.510;2023-04-05T05:27:48;15.57;;;8.77;;
21987;SDS011;11158;53.404;-1.510;2023-04-05T05:30:36;18.60;;;8.80;;
21987;SDS011;11158;53.404;-1.510;2023-04-05T05:33:20;15.13;;;8.93;;
21987;SDS011;11158;53.404;-1.510;2023-04-05T05:36:05;14.73;;;8.98;;
21987;SDS011;11158;53.404;-1.510;2023-04-05T05:38:49;15.07;;;9.18;;
21987;SDS011;11158;53.404;-1.510;2023-04-05T05:41:35;17.42;;;8.88;;
21987;SDS011;11158;53.404;-1.510;2023-04-05T05:44:19;14.85;;;9.20;;
21987;SDS011;11158;53.404;-1.510;2023-04-05T05:47:03;13.38;;;8.68;;
21987;SDS011;11158;53.404;-1.510;2023-04-05T05:49:48;13.88;;;8.43;;
21987;SDS011;11158;53.404;-1.510;2023-04-05T05:52:32;17.73;;;8.73;;
21987;SDS011;11158;53.404;-1.510;2023-04-05T05:55:18;17.98;;;9.98;;
21987;SDS011;11158;53.404;-1.510;2023-04-05T05:58:02;14.88;;;8.55;;
21987;SDS011;11158;53.404;-1.510;2023-04-05T06:00:46;14.85;;;8.68;;
21987;SDS011;11158;53.404;-1.510;2023-04-05T06:03:31;13.63;;;9.10;;
21987;SDS011;11158;53.404;-1.510;2023-04-05T06:06:16;15.50;;;9.02;;
21987;SDS011;11158;53.404;-1.510;2023-04-05T06:09:00;13.77;;;8.98;;
21987;SDS011;11158;53.404;-1.510;2023-04-05T06:11:44;15.25;;;9.52;;
21987;SDS011;11158;53.404;-1.510;2023-04-05T06:14:28;16.35;;;9.15;;
21987;SDS011;11158;53.404;-1.510;2023-04-05T06:17:12;18.38;;;9.60;;
21987;SDS011;11158;53.404;-1.510;2023-04-05T06:19:56;13.65;;;9.50;;
21987;SDS011;11158;53.404;-1.510;2023-04-05T06:22:40;14.63;;;9.50;;
21987;SDS011;11158;53.404;-1.510;2023-04-05T06:25:25;13.77;;;9.10;;
21987;SDS011;11158;53.404;-1.510;2023-04-05T06:28:09;17.77;;;9.05;;
21987;SDS011;11158;53.404;-1.510;2023-04-05T06:30:53;13.15;;;8.77;;
21987;SDS011;11158;53.404;-1.510;2023-04-05T06:33:38;14.73;;;8.30;;
21987;SDS011;11158;53.404;-1.510;2023-04-05T06:36:22;15.82;;;9.13;;
21987;SDS011;11158;53.404;-1.510;2023-04-05T06:39:06;12.80;;;8.43;;
21987;SDS011;11158;53.404;-1.510;2023-04-05T06:41:50;17.10;;;8.65;;
21987;SDS011;11158;53.404;-1.510;2023-04-05T06:44:34;19.85;;;8.85;;
21987;SDS011;11158;53.404;-1.510;2023-04-05T06:47:18;12.18;;;8.88;;
21987;SDS011;11158;53.404;-1.510;2023-04-05T06:50:03;16.77;;;8.40;;
21987;SDS011;11158;53.404;-1.510;2023-04-05T06:52:51;15.07;;;8.95;;
21987;SDS011;11158;53.404;-1.510;2023-04-05T06:55:35;16.50;;;8.98;;
21987;SDS011;11158;53.404;-1.510;2023-04-05T06:58:19;13.38;;;8.80;;
21987;SDS011;11158;53.404;-1.510;2023-04-05T07:01:04;15.63;;;8.93;;
21987;SDS011;11158;53.404;-1.510;2023-04-05T07:03:48;13.07;;;8.02;;
21987;SDS011;11158;53.404;-1.510;2023-04-05T07:06:32;15.07;;;8.82;;
21987;SDS011;11158;53.404;-1.510;2023-04-05T07:09:18;14.80;;;8.13;;
21987;SDS011;11158;53.404;-1.510;2023-04-05T07:12:03;14.40;;;9.43;;
21987;SDS011;11158;53.404;-1.510;2023-04-05T07:14:49;15.50;;;8.13;;
21987;SDS011;11158;53.404;-1.510;2023-04-05T07:17:34;13.90;;;8.02;;
21987;SDS011;11158;53.404;-1.510;2023-04-05T07:20:18;14.13;;;8.30;;
21987;SDS011;11158;53.404;-1.510;2023-04-05T07:23:02;13.70;;;8.48;;
21987;SDS011;11158;53.404;-1.510;2023-04-05T07:25:48;14.30;;;8.90;;
21987;SDS011;11158;53.404;-1.510;2023-04-05T07:28:32;11.73;;;8.50;;
21987;SDS011;11158;53.404;-1.510;2023-04-05T07:31:18;16.27;;;9.75;;
21987;SDS011;11158;53.404;-1.510;2023-04-05T07:34:03;12.38;;;9.00;;
21987;SDS011;11158;53.404;-1.510;2023-04-05T07:36:47;14.55;;;9.77;;
21987;SDS011;11158;53.404;-1.510;2023-04-05T07:39:33;18.15;;;9.50;;
21987;SDS011;11158;53.404;-1.510;2023-04-05T07:42:17;15.20;;;9.05;;
21987;SDS011;11158;53.404;-1.510;2023-04-05T07:45:03;13.70;;;8.93;;
21987;SDS011;11158;53.404;-1.510;2023-04-05T07:47:48;13.40;;;9.07;;
21987;SDS011;11158;53.404;-1.510;2023-04-05T07:50:33;12.93;;;8.63;;
21987;SDS011;11158;53.404;-1.510;2023-04-05T07:53:18;14.25;;;9.18;;
21987;SDS011;11158;53.404;-1.510;2023-04-05T07:56:05;12.35;;;8.70;;
21987;SDS011;11158;53.404;-1.510;2023-04-05T07:58:51;11.68;;;9.00;;
21987;SDS011;11158;53.404;-1.510;2023-04-05T08:01:37;15.95;;;9.73;;
21987;SDS011;11158;53.404;-1.510;2023-04-05T08:04:22;12.35;;;8.88;;
21987;SDS011;11158;53.404;-1.510;2023-04-05T08:07:09;13.45;;;8.90;;
21987;SDS011;11158;53.404;-1.510;2023-04-05T08:09:53;14.27;;;9.35;;
21987;SDS011;11158;53.404;-1.510;2023-04-05T08:12:40;14.60;;;8.73;;
21987;SDS011;11158;53.404;-1.510;2023-04-05T08:15:24;10.18;;;8.07;;
21987;SDS011;11158;53.404;-1.510;2023-04-05T08:18:08;13.32;;;8.80;;
21987;SDS011;11158;53.404;-1.510;2023-04-05T08:20:55;17.27;;;10.07;;
21987;SDS011;11158;53.404;-1.510;2023-04-05T08:23:40;15.40;;;9.32;;
21987;SDS011;11158;53.404;-1.510;2023-04-05T08:26:24;15.00;;;9.73;;
21987;SDS011;11158;53.404;-1.510;2023-04-05T08:29:09;17.27;;;8.45;;
21987;SDS011;11158;53.404;-1.510;2023-04-05T08:31:55;12.55;;;8.30;;
21987;SDS011;11158;53.404;-1.510;2023-04-05T08:34:40;12.23;;;8.38;;
21987;SDS011;11158;53.404;-1.510;2023-04-05T08:37:25;12.32;;;8.70;;
21987;SDS011;11158;53.404;-1.510;2023-04-05T08:40:09;12.82;;;8.52;;
21987;SDS011;11158;53.404;-1.510;2023-04-05T08:43:02;10.68;;;8.00;;
21987;SDS011;11158;53.404;-1.510;2023-04-05T08:45:52;13.55;;;7.90;;
21987;SDS011;11158;53.404;-1.510;2023-04-05T08:48:38;12.13;;;8.10;;
21987;SDS011;11158;53.404;-1.510;2023-04-05T08:51:24;10.85;;;7.70;;
21987;SDS011;11158;53.404;-1.510;2023-04-05T08:54:09;12.18;;;8.27;;
21987;SDS011;11158;53.404;-1.510;2023-04-05T08:56:54;11.18;;;7.35;;
21987;SDS011;11158;53.404;-1.510;2023-04-05T08:59:42;12.70;;;8.52;;
21987;SDS011;11158;53.404;-1.510;2023-04-05T09:02:28;14.18;;;8.70;;
21987;SDS011;11158;53.404;-1.510;2023-04-05T09:05:13;15.77;;;8.18;;
21987;SDS011;11158;53.404;-1.510;2023-04-05T09:07:59;16.45;;;7.63;;
21987;SDS011;11158;53.404;-1.510;2023-04-05T09:10:45;10.63;;;7.30;;
21987;SDS011;11158;53.404;-1.510;2023-04-05T09:13:29;8.82;;;7.38;;
21987;SDS011;11158;53.404;-1.510;2023-04-05T09:16:15;12.48;;;7.22;;
21987;SDS011;11158;53.404;-1.510;2023-04-05T09:19:00;11.68;;;8.10;;
21987;SDS011;11158;53.404;-1.510;2023-04-05T09:24:47;14.82;;;8.32;;
21987;SDS011;11158;53.404;-1.510;2023-04-05T09:27:31;11.25;;;7.75;;
21987;SDS011;11158;53.404;-1.510;2023-04-05T09:30:25;9.60;;;7.32;;
21987;SDS011;11158;53.404;-1.510;2023-04-05T09:33:17;10.15;;;7.28;;
21987;SDS011;11158;53.404;-1.510;2023-04-05T09:36:03;11.40;;;7.53;;
21987;SDS011;11158;53.404;-1.510;2023-04-05T09:38:48;12.25;;;7.97;;
21987;SDS011;11158;53.404;-1.510;2023-04-05T09:41:32;8.50;;;6.85;;
21987;SDS011;11158;53.404;-1.510;2023-04-05T09:44:17;10.38;;;7.82;;
21987;SDS011;11158;53.404;-1.510;2023-04-05T09:47:13;8.73;;;7.03;;
21987;SDS011;11158;53.404;-1.510;2023-04-05T09:50:00;14.85;;;7.95;;
21987;SDS011;11158;53.404;-1.510;2023-04-05T09:52:47;12.48;;;7.80;;
21987;SDS011;11158;53.404;-1.510;2023-04-05T09:55:31;10.57;;;7.50;;
21987;SDS011;11158;53.404;-1.510;2023-04-05T09:58:19;10.93;;;7.47;;
21987;SDS011;11158;53.404;-1.510;2023-04-05T10:01:04;10.45;;;7.43;;
21987;SDS011;11158;53.404;-1.510;2023-04-05T10:03:48;8.93;;;7.60;;
21987;SDS011;11158;53.404;-1.510;2023-04-05T10:06:40;9.88;;;8.18;;
21987;SDS011;11158;53.404;-1.510;2023-04-05T10:09:25;10.02;;;8.15;;
21987;SDS011;11158;53.404;-1.510;2023-04-05T10:12:10;12.40;;;8.23;;
21987;SDS011;11158;53.404;-1.510;2023-04-05T10:14:57;11.60;;;8.27;;
21987;SDS011;11158;53.404;-1.510;2023-04-05T10:17:46;11.57;;;8.63;;
21987;SDS011;11158;53.404;-1.510;2023-04-05T10:20:47;13.98;;;9.02;;
21987;SDS011;11158;53.404;-1.510;2023-04-05T10:23:33;10.85;;;8.77;;
21987;SDS011;11158;53.404;-1.510;2023-04-05T10:26:20;10.90;;;9.13;;
21987;SDS011;11158;53.404;-1.510;2023-04-05T10:29:24;11.13;;;9.43;;
21987;SDS011;11158;53.404;-1.510;2023-04-05T10:32:29;12.45;;;9.68;;
21987;SDS011;11158;53.404;-1.510;2023-04-05T10:38:45;12.55;;;9.27;;
21987;SDS011;11158;53.404;-1.510;2023-04-05T10:41:47;15.68;;;9.65;;
21987;SDS011;11158;53.404;-1.510;2023-04-05T10:44:35;13.13;;;9.88;;
21987;SDS011;11158;53.404;-1.510;2023-04-05T10:47:22;11.73;;;9.55;;
21987;SDS011;11158;53.404;-1.510;2023-04-05T10:50:11;12.45;;;9.80;;
21987;SDS011;11158;53.404;-1.510;2023-04-05T10:53:03;12.75;;;10.05;;
21987;SDS011;11158;53.404;-1.510;2023-04-05T10:55:48;12.90;;;9.80;;
21987;SDS011;11158;53.404;-1.510;2023-04-05T10:58:34;15.23;;;10.75;;
21987;SDS011;11158;53.404;-1.510;2023-04-05T11:01:19;12.60;;;9.90;;
21987;SDS011;11158;53.404;-1.510;2023-04-05T11:04:11;15.93;;;10.27;;
21987;SDS011;11158;53.404;-1.510;2023-04-05T11:07:13;14.23;;;9.95;;
21987;SDS011;11158;53.404;-1.510;2023-04-05T11:10:02;14.75;;;10.85;;
21987;SDS011;11158;53.404;-1.510;2023-04-05T11:15:32;13.07;;;9.98;;
21987;SDS011;11158;53.404;-1.510;2023-04-05T11:21:05;11.98;;;9.75;;
21987;SDS011;11158;53.404;-1.510;2023-04-05T11:24:07;13.63;;;10.68;;
21987;SDS011;11158;53.404;-1.510;2023-04-05T11:26:55;17.02;;;10.98;;
21987;SDS011;11158;53.404;-1.510;2023-04-05T11:29:47;14.27;;;10.82;;
21987;SDS011;11158;53.404;-1.510;2023-04-05T11:32:44;11.40;;;9.43;;
21987;SDS011;11158;53.404;-1.510;2023-04-05T11:35:29;14.38;;;11.32;;
21987;SDS011;11158;53.404;-1.510;2023-04-05T11:38:20;12.98;;;10.55;;
21987;SDS011;11158;53.404;-1.510;2023-04-05T11:41:13;13.20;;;10.27;;
21987;SDS011;11158;53.404;-1.510;2023-04-05T11:44:00;13.85;;;10.70;;
21987;SDS011;11158;53.404;-1.510;2023-04-05T11:46:46;14.23;;;10.18;;
21987;SDS011;11158;53.404;-1.510;2023-04-05T11:49:30;12.23;;;10.82;;
21987;SDS011;11158;53.404;-1.510;2023-04-05T11:52:17;14.07;;;10.57;;
21987;SDS011;11158;53.404;-1.510;2023-04-05T11:55:03;12.75;;;10.38;;
21987;SDS011;11158;53.404;-1.510;2023-04-05T11:57:51;12.57;;;9.35;;
21987;SDS011;11158;53.404;-1.510;2023-04-05T12:00:35;11.32;;;9.77;;
21987;SDS011;11158;53.404;-1.510;2023-04-05T12:03:20;10.43;;;8.35;;
21987;SDS011;11158;53.404;-1.510;2023-04-05T12:06:04;9.38;;;7.93;;
21987;SDS011;11158;53.404;-1.510;2023-04-05T12:08:50;11.75;;;7.85;;
21987;SDS011;11158;53.404;-1.510;2023-04-05T12:11:39;8.95;;;8.05;;
21987;SDS011;11158;53.404;-1.510;2023-04-05T12:14:23;8.52;;;7.43;;
21987;SDS011;11158;53.404;-1.510;2023-04-05T12:17:08;9.07;;;7.43;;
21987;SDS011;11158;53.404;-1.510;2023-04-05T12:19:52;8.02;;;7.22;;
21987;SDS011;11158;53.404;-1.510;2023-04-05T12:22:37;9.07;;;7.70;;
21987;SDS011;11158;53.404;-1.510;2023-04-05T12:25:23;9.23;;;7.80;;
21987;SDS011;11158;53.404;-1.510;2023-04-05T12:28:07;11.45;;;7.90;;
21987;SDS011;11158;53.404;-1.510;2023-04-05T12:33:35;11.02;;;7.30;;
21987;SDS011;11158;53.404;-1.510;2023-04-05T12:36:23;9.68;;;7.90;;
21987;SDS011;11158;53.404;-1.510;2023-04-05T12:39:10;10.25;;;7.43;;
21987;SDS011;11158;53.404;-1.510;2023-04-05T12:41:55;10.35;;;7.97;;
21987;SDS011;11158;53.404;-1.510;2023-04-05T12:44:41;8.52;;;7.63;;
21987;SDS011;11158;53.404;-1.510;2023-04-05T12:47:27;8.75;;;7.95;;
21987;SDS011;11158;53.404;-1.510;2023-04-05T12:50:12;10.05;;;7.97;;
21987;SDS011;11158;53.404;-1.510;2023-04-05T12:52:59;9.40;;;8.07;;
21987;SDS011;11158;53.404;-1.510;2023-04-05T12:55:54;10.98;;;8.95;;
21987;SDS011;11158;53.404;-1.510;2023-04-05T12:58:39;14.02;;;9.02;;
21987;SDS011;11158;53.404;-1.510;2023-04-05T13:01:24;10.00;;;8.88;;
21987;SDS011;11158;53.404;-1.510;2023-04-05T13:04:08;11.10;;;8.85;;
21987;SDS011;11158;53.404;-1.510;2023-04-05T13:06:52;12.07;;;8.27;;
21987;SDS011;11158;53.404;-1.510;2023-04-05T13:09:37;11.27;;;8.98;;
21987;SDS011;11158;53.404;-1.510;2023-04-05T13:12:22;12.63;;;9.63;;
21987;SDS011;11158;53.404;-1.510;2023-04-05T13:15:06;12.45;;;9.85;;
21987;SDS011;11158;53.404;-1.510;2023-04-05T13:17:54;12.15;;;9.40;;
21987;SDS011;11158;53.404;-1.510;2023-04-05T13:20:38;11.35;;;10.13;;
21987;SDS011;11158;53.404;-1.510;2023-04-05T13:23:24;11.88;;;9.63;;
21987;SDS011;11158;53.404;-1.510;2023-04-05T13:26:09;10.18;;;9.18;;
21987;SDS011;11158;53.404;-1.510;2023-04-05T13:28:53;11.68;;;9.60;;
21987;SDS011;11158;53.404;-1.510;2023-04-05T13:31:38;12.05;;;9.88;;
21987;SDS011;11158;53.404;-1.510;2023-04-05T13:34:23;11.23;;;9.85;;
21987;SDS011;11158;53.404;-1.510;2023-04-05T13:37:07;13.02;;;9.65;;
21987;SDS011;11158;53.404;-1.510;2023-04-05T13:39:51;10.25;;;9.13;;
21987;SDS011;11158;53.404;-1.510;2023-04-05T13:42:35;13.63;;;10.23;;
21987;SDS011;11158;53.404;-1.510;2023-04-05T13:45:20;11.50;;;9.68;;
21987;SDS011;11158;53.404;-1.510;2023-04-05T13:48:04;10.90;;;8.70;;
21987;SDS011;11158;53.404;-1.510;2023-04-05T13:50:48;11.00;;;9.43;;
21987;SDS011;11158;53.404;-1.510;2023-04-05T13:53:32;11.10;;;9.43;;
21987;SDS011;11158;53.404;-1.510;2023-04-05T13:56:17;12.30;;;9.00;;
21987;SDS011;11158;53.404;-1.510;2023-04-05T13:59:01;11.15;;;9.02;;
21987;SDS011;11158;53.404;-1.510;2023-04-05T14:01:45;10.60;;;9.23;;
21987;SDS011;11158;53.404;-1.510;2023-04-05T14:04:29;10.75;;;9.10;;
21987;SDS011;11158;53.404;-1.510;2023-04-05T14:07:14;11.05;;;9.85;;
21987;SDS011;11158;53.404;-1.510;2023-04-05T14:09:58;11.18;;;9.55;;
21987;SDS011;11158;53.404;-1.510;2023-04-05T14:12:42;12.27;;;10.00;;
21987;SDS011;11158;53.404;-1.510;2023-04-05T14:15:26;10.18;;;9.07;;
21987;SDS011;11158;53.404;-1.510;2023-04-05T14:18:10;10.43;;;9.30;;
21987;SDS011;11158;53.404;-1.510;2023-04-05T14:20:54;11.75;;;9.50;;
21987;SDS011;11158;53.404;-1.510;2023-04-05T14:23:41;11.25;;;9.45;;
21987;SDS011;11158;53.404;-1.510;2023-04-05T14:26:26;12.13;;;10.13;;
21987;SDS011;11158;53.404;-1.510;2023-04-05T14:29:10;10.68;;;9.60;;
21987;SDS011;11158;53.404;-1.510;2023-04-05T14:31:55;14.75;;;10.45;;
21987;SDS011;11158;53.404;-1.510;2023-04-05T14:34:39;12.80;;;10.07;;
21987;SDS011;11158;53.404;-1.510;2023-04-05T14:37:23;12.98;;;11.02;;
21987;SDS011;11158;53.404;-1.510;2023-04-05T14:40:08;12.70;;;10.20;;
21987;SDS011;11158;53.404;-1.510;2023-04-05T14:42:52;10.93;;;9.82;;
21987;SDS011;11158;53.404;-1.510;2023-04-05T14:45:38;10.73;;;9.18;;
21987;SDS011;11158;53.404;-1.510;2023-04-05T14:48:22;11.30;;;9.88;;
21987;SDS011;11158;53.404;-1.510;2023-04-05T14:51:06;11.50;;;9.82;;
21987;SDS011;11158;53.404;-1.510;2023-04-05T14:53:51;10.10;;;8.95;;
21987;SDS011;11158;53.404;-1.510;2023-04-05T14:56:35;13.77;;;9.80;;
21987;SDS011;11158;53.404;-1.510;2023-04-05T14:59:19;10.68;;;9.55;;
21987;SDS011;11158;53.404;-1.510;2023-04-05T15:02:04;12.57;;;8.45;;
21987;SDS011;11158;53.404;-1.510;2023-04-05T15:04:48;7.95;;;7.13;;
21987;SDS011;11158;53.404;-1.510;2023-04-05T15:07:32;8.00;;;7.18;;
21987;SDS011;11158;53.404;-1.510;2023-04-05T15:10:16;8.02;;;6.30;;
21987;SDS011;11158;53.404;-1.510;2023-04-05T15:13:02;6.28;;;5.68;;
21987;SDS011;11158;53.404;-1.510;2023-04-05T15:15:46;6.10;;;5.30;;
21987;SDS011;11158;53.404;-1.510;2023-04-05T15:18:30;7.32;;;6.00;;
21987;SDS011;11158;53.404;-1.510;2023-04-05T15:21:14;7.03;;;6.32;;
21987;SDS011;11158;53.404;-1.510;2023-04-05T15:24:00;7.85;;;6.22;;
21987;SDS011;11158;53.404;-1.510;2023-04-05T15:26:45;6.22;;;5.63;;
21987;SDS011;11158;53.404;-1.510;2023-04-05T15:29:29;7.78;;;6.13;;
21987;SDS011;11158;53.404;-1.510;2023-04-05T15:32:14;7.43;;;6.57;;
21987;SDS011;11158;53.404;-1.510;2023-04-05T15:34:59;7.25;;;6.07;;
21987;SDS011;11158;53.404;-1.510;2023-04-05T15:37:44;6.13;;;5.53;;
21987;SDS011;11158;53.404;-1.510;2023-04-05T15:40:28;6.10;;;5.47;;
21987;SDS011;11158;53.404;-1.510;2023-04-05T15:43:16;5.05;;;4.55;;
21987;SDS011;11158;53.404;-1.510;2023-04-05T15:46:01;6.45;;;5.38;;
21987;SDS011;11158;53.404;-1.510;2023-04-05T15:48:47;5.20;;;4.63;;
21987;SDS011;11158;53.404;-1.510;2023-04-05T15:51:32;5.47;;;4.10;;
21987;SDS011;11158;53.404;-1.510;2023-04-05T15:54:17;5.13;;;4.50;;
21987;SDS011;11158;53.404;-1.510;2023-04-05T15:57:03;4.57;;;3.88;;
21987;SDS011;11158;53.404;-1.510;2023-04-05T15:59:47;4.65;;;4.15;;
21987;SDS011;11158;53.404;-1.510;2023-04-05T16:02:31;5.38;;;4.18;;
21987;SDS011;11158;53.404;-1.510;2023-04-05T16:05:15;4.03;;;3.63;;
21987;SDS011;11158;53.404;-1.510;2023-04-05T16:07:59;6.90;;;4.20;;
21987;SDS011;11158;53.404;-1.510;2023-04-05T16:10:44;5.00;;;4.25;;
21987;SDS011;11158;53.404;-1.510;2023-04-05T16:13:29;4.60;;;4.10;;
21987;SDS011;11158;53.404;-1.510;2023-04-05T16:16:13;4.97;;;4.10;;
21987;SDS011;11158;53.404;-1.510;2023-04-05T16:18:57;5.30;;;4.20;;
21987;SDS011;11158;53.404;-1.510;2023-04-05T16:21:42;4.60;;;4.13;;
21987;SDS011;11158;53.404;-1.510;2023-04-05T16:24:36;5.07;;;4.15;;
21987;SDS011;11158;53.404;-1.510;2023-04-05T16:27:22;4.55;;;3.72;;
21987;SDS011;11158;53.404;-1.510;2023-04-05T16:30:06;3.13;;;2.83;;
21987;SDS011;11158;53.404;-1.510;2023-04-05T16:32:51;3.85;;;3.50;;
21987;SDS011;11158;53.404;-1.510;2023-04-05T16:35:39;4.32;;;3.45;;
21987;SDS011;11158;53.404;-1.510;2023-04-05T16:38:23;3.63;;;3.15;;
21987;SDS011;11158;53.404;-1.510;2023-04-05T16:41:07;3.72;;;3.20;;